Time;durP1;ratioP1;P1;durP2;ratioP2;P2;SDS_P1;SDS_P2;PMS_P1;PMS_P2;Temp;Humidity;BMP_temperature;BMP_pressure;BME280_temperature;BME280_humidity;BME280_pressure;Samples;Min_cycle;Max_cycle;Signal;HPM_P1;HPM_P2
2023/07/22 00:00:39;;;;;;;2.40;0.98;;;20.60;49.00;;;;;;2275665;55;20961;-71
2023/07/22 00:03:06;;;;;;;2.47;0.90;;;20.60;49.20;;;;;;2291707;55;20917;-68
2023/07/22 00:05:35;;;;;;;2.30;0.77;;;20.60;49.20;;;;;;2292506;55;21000;-69
2023/07/22 00:08:03;;;;;;;2.35;0.82;;;20.50;49.10;;;;;;2528214;54;20988;-68
2023/07/22 00:10:32;;;;;;;1.73;0.60;;;20.50;49.20;;;;;;2292142;55;20980;-67
2023/07/22 00:12:59;;;;;;;2.30;0.98;;;20.50;49.20;;;;;;2292497;55;20904;-68
2023/07/22 00:15:25;;;;;;;3.30;0.90;;;20.40;49.10;;;;;;2528671;54;21386;-69
2023/07/22 00:17:51;;;;;;;2.72;0.90;;;20.40;49.20;;;;;;2289983;55;20960;-68
2023/07/22 00:20:19;;;;;;;2.30;0.88;;;20.30;49.00;;;;;;2527863;54;21726;-68
2023/07/22 00:22:46;;;;;;;2.40;0.93;;;20.30;49.10;;;;;;2292798;55;20945;-70
2023/07/22 00:25:12;;;;;;;2.67;1.15;;;20.30;49.20;;;;;;2528132;54;20964;-67
2023/07/22 00:27:39;;;;;;;2.05;0.80;;;20.20;49.20;;;;;;2292362;55;21019;-70
2023/07/22 00:30:08;;;;;;;1.85;0.82;;;20.20;49.30;;;;;;2287417;55;21026;-67
2023/07/22 00:32:36;;;;;;;2.60;1.15;;;20.20;49.30;;;;;;2280333;55;20972;-68
2023/07/22 00:35:05;;;;;;;1.83;0.85;;;20.10;49.20;;;;;;2292360;56;20917;-72
2023/07/22 00:37:32;;;;;;;2.53;1.00;;;20.10;49.20;;;;;;2292420;55;20920;-67
2023/07/22 00:39:58;;;;;;;1.92;0.75;;;20.00;49.10;;;;;;2292898;55;21038;-71
2023/07/22 00:42:25;;;;;;;1.98;0.80;;;20.00;49.10;;;;;;2503781;54;20916;-68
2023/07/22 00:44:51;;;;;;;2.67;1.00;;;19.90;49.20;;;;;;2528234;54;20920;-68
2023/07/22 00:47:18;;;;;;;2.10;0.90;;;19.90;49.30;;;;;;2292769;55;20948;-70
2023/07/22 00:49:47;;;;;;;2.17;0.80;;;19.80;49.30;;;;;;2280915;55;20970;-68
2023/07/22 00:52:13;;;;;;;2.28;0.90;;;19.80;49.40;;;;;;2522614;54;20956;-68
2023/07/22 00:54:41;;;;;;;2.20;1.00;;;19.70;49.30;;;;;;2293092;55;20940;-70
2023/07/22 00:57:10;;;;;;;1.90;0.70;;;19.70;49.30;;;;;;2286225;55;21033;-71
2023/07/22 00:59:36;;;;;;;1.90;0.80;;;19.60;49.30;;;;;;2280107;55;20940;-67
2023/07/22 01:02:02;;;;;;;3.10;0.95;;;19.60;49.30;;;;;;2293013;55;21015;-68
2023/07/22 01:04:29;;;;;;;1.67;0.70;;;19.60;49.40;;;;;;2293280;55;21044;-67
2023/07/22 01:06:56;;;;;;;2.00;0.85;;;19.50;49.40;;;;;;2292864;55;20904;-68
2023/07/22 01:09:23;;;;;;;2.15;0.90;;;19.40;49.30;;;;;;2292700;55;20908;-68
2023/07/22 01:11:49;;;;;;;1.98;0.82;;;19.40;49.30;;;;;;2528260;54;21433;-68
2023/07/22 01:14:17;;;;;;;2.40;0.88;;;19.30;49.30;;;;;;2292779;56;20944;-67
2023/07/22 01:16:44;;;;;;;2.12;0.70;;;19.30;49.40;;;;;;2293376;55;20936;-72
2023/07/22 01:19:13;;;;;;;1.67;0.70;;;19.20;49.40;;;;;;2293273;55;21016;-67
2023/07/22 01:21:39;;;;;;;1.37;0.60;;;19.20;49.50;;;;;;2292897;55;21715;-67
2023/07/22 01:24:07;;;;;;;1.77;0.70;;;19.10;49.50;;;;;;2282591;55;21582;-68
2023/07/22 01:26:34;;;;;;;1.55;0.60;;;19.10;49.50;;;;;;2286171;55;20979;-68
2023/07/22 01:29:04;;;;;;;2.17;0.90;;;19.10;49.60;;;;;;2273812;55;20990;-69
2023/07/22 01:31:34;;;;;;;3.05;1.00;;;19.00;49.70;;;;;;2528294;54;20972;-70
2023/07/22 01:34:02;;;;;;;1.95;0.75;;;19.00;49.70;;;;;;2293644;55;20932;-71
2023/07/22 01:36:29;;;;;;;4.20;0.98;;;18.90;49.80;;;;;;2527701;54;20964;-69
2023/07/22 01:38:55;;;;;;;2.60;0.77;;;18.90;50.00;;;;;;2292617;55;20961;-68
2023/07/22 01:41:21;;;;;;;1.83;0.80;;;18.90;50.00;;;;;;2501567;54;21017;-67
2023/07/22 01:43:48;;;;;;;1.87;0.77;;;18.80;49.90;;;;;;2292958;55;20955;-71
2023/07/22 01:46:15;;;;;;;1.87;0.77;;;18.80;50.00;;;;;;2528062;54;20929;-68
2023/07/22 01:48:41;;;;;;;1.92;0.80;;;18.80;50.00;;;;;;2292821;55;20984;-67
2023/07/22 01:51:08;;;;;;;1.95;0.70;;;18.70;50.00;;;;;;2527126;54;21069;-67
2023/07/22 01:53:35;;;;;;;2.78;0.85;;;18.70;50.00;;;;;;2292981;55;20928;-67
2023/07/22 01:56:02;;;;;;;2.28;0.80;;;18.70;50.20;;;;;;2500590;54;21037;-70
2023/07/22 01:58:29;;;;;;;2.95;0.90;;;18.60;50.10;;;;;;2528354;54;20973;-71
2023/07/22 02:00:59;;;;;;;3.40;0.75;;;18.60;50.30;;;;;;2292666;56;20904;-67
2023/07/22 02:03:25;;;;;;;2.40;0.90;;;18.60;50.40;;;;;;2293092;56;20984;-67
2023/07/22 02:05:52;;;;;;;2.00;0.93;;;18.60;50.50;;;;;;2292857;56;21067;-68
2023/07/22 02:08:18;;;;;;;2.40;0.90;;;18.60;50.50;;;;;;2527593;54;21378;-67
2023/07/22 02:10:44;;;;;;;2.15;0.80;;;18.50;50.50;;;;;;2527516;54;21346;-70
2023/07/22 02:13:11;;;;;;;2.17;0.80;;;18.50;50.50;;;;;;2274538;55;20917;-68
2023/07/22 02:15:40;;;;;;;2.60;0.90;;;18.50;50.50;;;;;;2518322;54;21497;-69
2023/07/22 02:18:07;;;;;;;2.50;1.00;;;18.50;50.50;;;;;;2292274;55;20941;-67
2023/07/22 02:20:34;;;;;;;3.75;1.00;;;18.50;50.50;;;;;;2292687;56;21028;-67
2023/07/22 02:23:00;;;;;;;2.30;0.90;;;18.50;50.50;;;;;;2282159;55;21013;-68
2023/07/22 02:25:27;;;;;;;2.30;1.00;;;18.50;50.60;;;;;;2271945;55;20932;-68
2023/07/22 02:27:53;;;;;;;2.50;0.82;;;18.40;50.60;;;;;;2292629;55;21441;-67
2023/07/22 02:30:19;;;;;;;2.55;0.85;;;18.40;50.60;;;;;;2292905;56;20960;-67
2023/07/22 02:32:46;;;;;;;3.75;1.00;;;18.40;50.60;;;;;;2527289;54;20928;-68
2023/07/22 02:35:12;;;;;;;2.20;0.77;;;18.30;50.50;;;;;;2527709;54;20906;-68
2023/07/22 02:37:39;;;;;;;2.28;0.90;;;18.40;50.60;;;;;;2292482;56;20916;-67
2023/07/22 02:40:07;;;;;;;2.28;0.85;;;18.40;50.70;;;;;;2528007;54;20940;-72
2023/07/22 02:42:35;;;;;;;1.70;0.70;;;18.30;50.60;;;;;;2292745;55;21350;-70
2023/07/22 02:45:06;;;;;;;2.83;0.95;;;18.30;51.20;;;;;;2278052;55;20973;-68
2023/07/22 02:47:34;;;;;;;2.45;0.90;;;18.30;50.70;;;;;;2524233;54;21445;-70
2023/07/22 02:50:00;;;;;;;1.87;0.80;;;18.30;50.80;;;;;;2527385;54;21024;-68
2023/07/22 02:52:27;;;;;;;3.03;0.80;;;18.20;50.70;;;;;;2501960;54;21038;-67
2023/07/22 02:55:13;;;;;;;2.20;0.90;;;18.20;50.70;;;;;;2527824;54;21056;-68
2023/07/22 02:57:39;;;;;;;2.20;0.88;;;18.20;51.10;;;;;;2526613;54;21008;-71
2023/07/22 03:00:07;;;;;;;2.47;0.88;;;18.20;50.80;;;;;;2527055;54;20937;-69
2023/07/22 03:02:37;;;;;;;2.53;0.90;;;18.20;50.90;;;;;;2292754;55;21012;-68
2023/07/22 03:05:08;;;;;;;2.53;1.10;;;18.20;51.00;;;;;;2292162;55;20940;-69
2023/07/22 03:07:38;;;;;;;2.55;1.00;;;18.20;51.00;;;;;;2292374;56;21023;-67
2023/07/22 03:10:06;;;;;;;2.55;0.90;;;18.10;50.80;;;;;;2528100;54;20948;-66
2023/07/22 03:12:32;;;;;;;3.15;1.10;;;18.10;50.80;;;;;;2292341;55;20934;-68
2023/07/22 03:14:59;;;;;;;2.78;1.00;;;18.10;50.80;;;;;;2527631;54;20928;-70
2023/07/22 03:17:29;;;;;;;2.42;1.10;;;18.10;50.80;;;;;;2292625;55;20949;-72
2023/07/22 03:19:56;;;;;;;1.73;0.77;;;18.00;50.80;;;;;;2501524;54;21771;-68
2023/07/22 03:22:22;;;;;;;2.17;0.80;;;18.00;50.90;;;;;;2528225;54;20928;-68
2023/07/22 03:24:49;;;;;;;2.47;1.00;;;18.00;51.00;;;;;;2292487;56;20960;-68
2023/07/22 03:27:17;;;;;;;2.37;1.00;;;18.00;51.80;;;;;;2292578;55;21750;-68
2023/07/22 03:29:43;;;;;;;2.30;0.90;;;18.00;51.10;;;;;;2527847;54;21344;-69
2023/07/22 03:32:09;;;;;;;2.00;0.80;;;17.90;51.10;;;;;;2292481;55;20963;-67
2023/07/22 03:34:37;;;;;;;3.17;1.17;;;17.90;51.10;;;;;;2292960;55;20956;-69
2023/07/22 03:37:03;;;;;;;2.75;0.80;;;17.90;51.20;;;;;;2526626;54;21016;-67
2023/07/22 03:39:29;;;;;;;2.12;0.85;;;17.90;51.20;;;;;;2528395;54;21473;-67
2023/07/22 03:41:56;;;;;;;2.30;0.80;;;17.80;51.20;;;;;;2284505;55;22036;-68
2023/07/22 03:44:22;;;;;;;3.72;0.82;;;17.80;51.30;;;;;;2281930;55;20953;-68
2023/07/22 03:46:48;;;;;;;2.05;0.75;;;17.80;51.30;;;;;;2293315;55;20924;-67
2023/07/22 03:49:17;;;;;;;2.42;0.90;;;17.80;51.40;;;;;;2293375;55;21390;-71
2023/07/22 03:51:43;;;;;;;2.53;1.00;;;17.80;51.50;;;;;;2528127;54;21103;-71
2023/07/22 03:54:09;;;;;;;2.60;1.00;;;17.80;51.50;;;;;;2292090;55;21000;-70
2023/07/22 03:56:46;;;;;;;2.30;1.00;;;17.80;51.50;;;;;;2292528;55;21406;-67
2023/07/22 03:59:16;;;;;;;2.65;1.10;;;17.80;51.50;;;;;;2292313;56;20977;-67
2023/07/22 04:01:43;;;;;;;;;;;17.80;51.60;;;;;;2432679;54;5794903;-67
2023/07/22 04:04:09;;;;;;;2.35;0.98;;;17.70;51.50;;;;;;2292249;55;21076;-68
2023/07/22 04:06:36;;;;;;;2.20;0.90;;;17.80;51.50;;;;;;2527863;54;20960;-67
2023/07/22 04:09:03;;;;;;;2.58;0.95;;;17.70;51.50;;;;;;2292395;55;20920;-69
2023/07/22 04:11:29;;;;;;;2.15;0.90;;;17.70;51.50;;;;;;2292513;55;20913;-68
2023/07/22 04:13:56;;;;;;;1.85;0.80;;;17.70;51.50;;;;;;2291882;55;21476;-68
2023/07/22 04:16:22;;;;;;;2.85;0.90;;;17.70;51.50;;;;;;2291780;55;21430;-68
2023/07/22 04:18:51;;;;;;;2.25;1.00;;;17.70;51.50;;;;;;2528441;54;20904;-67
2023/07/22 04:21:18;;;;;;;2.50;1.05;;;17.70;51.60;;;;;;2292740;55;20896;-67
2023/07/22 04:23:44;;;;;;;2.30;1.00;;;17.70;51.60;;;;;;2528384;54;21011;-67
2023/07/22 04:26:11;;;;;;;2.20;1.00;;;17.60;51.60;;;;;;2528240;54;20940;-67
2023/07/22 04:28:37;;;;;;;2.00;0.90;;;17.60;51.70;;;;;;2292473;55;20943;-69
2023/07/22 04:31:04;;;;;;;2.95;1.30;;;17.60;51.80;;;;;;2292736;55;20940;-72
2023/07/22 04:33:34;;;;;;;2.60;1.20;;;17.60;51.90;;;;;;2528581;54;20952;-68
2023/07/22 04:36:01;;;;;;;3.22;1.23;;;17.60;52.00;;;;;;2292515;55;20936;-71
2023/07/22 04:38:28;;;;;;;3.12;1.10;;;17.60;52.10;;;;;;2292996;55;20973;-68
2023/07/22 04:40:55;;;;;;;4.35;1.52;;;17.60;52.30;;;;;;2292586;56;21715;-69
2023/07/22 04:43:21;;;;;;;3.30;1.08;;;17.60;52.40;;;;;;2528384;54;20923;-67
2023/07/22 04:45:48;;;;;;;2.55;1.17;;;17.60;52.40;;;;;;2510399;54;20945;-70
2023/07/22 04:48:16;;;;;;;2.70;1.00;;;17.60;52.40;;;;;;2285967;55;21031;-71
2023/07/22 04:50:44;;;;;;;2.70;1.00;;;17.60;52.40;;;;;;2293002;55;20968;-67
2023/07/22 04:53:14;;;;;;;2.20;0.85;;;17.60;52.40;;;;;;2527214;54;21040;-71
2023/07/22 04:55:42;;;;;;;3.28;1.10;;;17.60;52.50;;;;;;2293147;55;20980;-68
2023/07/22 04:58:09;;;;;;;2.80;1.20;;;17.60;52.50;;;;;;2292967;55;21024;-67
2023/07/22 05:00:37;;;;;;;2.95;1.40;;;17.60;52.50;;;;;;2292954;55;20924;-71
2023/07/22 05:03:04;;;;;;;2.65;1.10;;;17.70;52.60;;;;;;2292481;56;20932;-68
2023/07/22 05:05:30;;;;;;;2.45;1.10;;;17.70;52.70;;;;;;2293401;55;20944;-67
2023/07/22 05:07:56;;;;;;;3.10;1.05;;;17.70;52.70;;;;;;2292688;55;20952;-69
2023/07/22 05:10:23;;;;;;;1.95;0.80;;;17.70;52.80;;;;;;2293019;55;20908;-67
2023/07/22 05:12:49;;;;;;;2.33;1.05;;;17.70;52.90;;;;;;2528134;54;20896;-68
2023/07/22 05:15:15;;;;;;;3.10;1.00;;;17.80;53.00;;;;;;2528915;54;20951;-68
2023/07/22 05:17:42;;;;;;;2.80;1.00;;;17.80;53.00;;;;;;2527910;54;20945;-69
2023/07/22 05:20:12;;;;;;;1.98;0.77;;;17.90;53.10;;;;;;2292917;55;21024;-68
2023/07/22 05:22:39;;;;;;;3.37;0.85;;;17.90;53.30;;;;;;2528299;54;20975;-69
2023/07/22 05:25:06;;;;;;;3.08;0.93;;;17.90;53.30;;;;;;2528235;54;21515;-68
2023/07/22 05:27:35;;;;;;;2.25;1.00;;;17.90;53.40;;;;;;2292928;55;20940;-72
2023/07/22 05:30:02;;;;;;;2.53;1.12;;;18.00;53.50;;;;;;2527751;54;20909;-68
2023/07/22 05:32:29;;;;;;;2.28;0.98;;;18.00;53.60;;;;;;2281489;55;20941;-68
2023/07/22 05:34:59;;;;;;;2.90;0.98;;;18.10;53.70;;;;;;2288204;55;20913;-70
2023/07/22 05:37:26;;;;;;;2.75;1.02;;;18.10;53.80;;;;;;2275132;55;21002;-68
2023/07/22 05:39:52;;;;;;;2.55;1.05;;;18.20;53.90;;;;;;2526971;54;20913;-67
2023/07/22 05:42:19;;;;;;;2.92;1.23;;;18.20;54.00;;;;;;2293317;56;20932;-68
2023/07/22 05:44:50;;;;;;;3.58;1.00;;;18.30;54.10;;;;;;2528362;54;20952;-70
2023/07/22 05:47:17;;;;;;;3.22;1.10;;;18.40;54.30;;;;;;2528397;54;21346;-68
2023/07/22 05:49:44;;;;;;;2.40;1.10;;;18.40;54.30;;;;;;2292216;55;20892;-67
2023/07/22 05:52:12;;;;;;;1.90;0.82;;;18.50;54.30;;;;;;2292401;55;20976;-68
2023/07/22 05:54:38;;;;;;;2.50;0.90;;;18.60;54.40;;;;;;2500832;54;21426;-71
2023/07/22 05:57:05;;;;;;;3.25;0.90;;;18.60;54.40;;;;;;2525484;54;21739;-68
2023/07/22 05:59:31;;;;;;;2.12;1.00;;;18.70;54.50;;;;;;2292873;55;21015;-68
2023/07/22 06:01:58;;;;;;;2.25;1.00;;;18.80;54.50;;;;;;2292663;55;20947;-68
2023/07/22 06:04:25;;;;;;;2.47;1.27;;;18.80;54.50;;;;;;2291793;56;20917;-72
2023/07/22 06:06:51;;;;;;;2.00;0.85;;;18.90;54.60;;;;;;2527634;54;21048;-68
2023/07/22 06:09:22;;;;;;;2.25;0.93;;;18.90;54.50;;;;;;2293170;56;20923;-68
2023/07/22 06:11:50;;;;;;;2.42;1.10;;;19.10;54.80;;;;;;2291949;55;20884;-68
2023/07/22 06:14:18;;;;;;;2.78;1.10;;;19.00;54.60;;;;;;2528724;54;20892;-68
2023/07/22 06:16:44;;;;;;;2.83;1.17;;;19.20;54.80;;;;;;2528410;54;21358;-69
2023/07/22 06:19:11;;;;;;;2.55;1.30;;;19.30;54.90;;;;;;2527881;54;21863;-72
2023/07/22 06:21:38;;;;;;;2.25;1.00;;;19.30;55.00;;;;;;2527950;54;20924;-68
2023/07/22 06:24:05;;;;;;;2.72;1.20;;;19.40;55.00;;;;;;2526841;54;20992;-69
2023/07/22 06:26:31;;;;;;;3.03;1.30;;;19.50;55.10;;;;;;2293070;56;21743;-68
2023/07/22 06:28:57;;;;;;;3.62;1.17;;;19.50;55.00;;;;;;2527306;54;20968;-68
2023/07/22 06:31:24;;;;;;;2.08;1.00;;;19.70;55.20;;;;;;2293209;56;20992;-70
2023/07/22 06:33:52;;;;;;;2.35;1.05;;;19.70;55.20;;;;;;2528774;54;20964;-68
2023/07/22 06:36:18;;;;;;;2.62;1.12;;;19.80;55.30;;;;;;2527962;54;21063;-68
2023/07/22 06:38:44;;;;;;;2.53;1.20;;;19.90;55.30;;;;;;2292489;55;20928;-68
2023/07/22 06:41:11;;;;;;;2.60;1.00;;;20.00;55.40;;;;;;2527480;54;21614;-68
2023/07/22 06:43:37;;;;;;;2.45;1.10;;;20.10;55.40;;;;;;2292484;56;20924;-69
2023/07/22 06:46:03;;;;;;;2.53;1.10;;;20.20;55.50;;;;;;2292619;55;21412;-73
2023/07/22 06:48:32;;;;;;;2.67;1.02;;;20.20;55.50;;;;;;2292863;55;21449;-68
2023/07/22 06:50:58;;;;;;;3.28;1.20;;;20.30;55.40;;;;;;2502677;54;20990;-69
2023/07/22 06:53:26;;;;;;;2.97;1.12;;;20.50;55.60;;;;;;2291770;55;20923;-68
2023/07/22 06:55:52;;;;;;;2.40;1.10;;;20.60;55.70;;;;;;2527720;54;20968;-67
2023/07/22 06:58:20;;;;;;;3.00;1.10;;;20.70;55.60;;;;;;2293067;55;21489;-70
2023/07/22 07:00:46;;;;;;;3.30;1.02;;;20.80;55.60;;;;;;2292579;55;20972;-71
2023/07/22 07:03:12;;;;;;;2.40;1.10;;;20.90;55.60;;;;;;2292225;55;20980;-67
2023/07/22 07:05:41;;;;;;;2.78;1.30;;;21.00;55.60;;;;;;2527855;54;20981;-68
2023/07/22 07:08:10;;;;;;;3.03;1.17;;;21.00;55.60;;;;;;2292101;56;21709;-66
2023/07/22 07:10:38;;;;;;;2.72;1.20;;;21.20;55.70;;;;;;2528003;54;21915;-66
2023/07/22 07:13:04;;;;;;;3.28;1.30;;;21.30;55.70;;;;;;2292335;55;20924;-68
2023/07/22 07:15:30;;;;;;;3.15;1.60;;;21.40;55.70;;;;;;2527789;54;20929;-66
2023/07/22 07:17:57;;;;;;;4.85;1.20;;;21.50;55.70;;;;;;2292644;55;21571;-66
2023/07/22 07:20:24;;;;;;;2.78;1.17;;;21.70;55.80;;;;;;2510967;54;21473;-65
2023/07/22 07:22:50;;;;;;;2.30;1.02;;;21.80;55.70;;;;;;2516813;54;21004;-65
2023/07/22 07:25:16;;;;;;;2.80;1.20;;;21.80;55.60;;;;;;2527941;54;20964;-64
2023/07/22 07:27:43;;;;;;;2.70;1.20;;;21.90;55.60;;;;;;2292783;56;20928;-69
2023/07/22 07:30:10;;;;;;;2.42;1.12;;;22.10;55.60;;;;;;2279849;55;21039;-65
2023/07/22 07:32:37;;;;;;;2.85;1.30;;;22.20;55.60;;;;;;2522746;54;20941;-64
2023/07/22 07:35:04;;;;;;;2.80;1.45;;;22.30;55.60;;;;;;2292256;56;20928;-65
2023/07/22 07:37:32;;;;;;;3.60;1.15;;;22.40;55.60;;;;;;2293499;55;21034;-69
2023/07/22 07:39:59;;;;;;;2.50;1.20;;;22.50;55.50;;;;;;2292332;55;20924;-65
2023/07/22 07:42:28;;;;;;;2.60;1.20;;;22.60;55.40;;;;;;2292973;55;20947;-65
2023/07/22 07:44:55;;;;;;;5.87;1.40;;;22.70;55.30;;;;;;2528258;54;20963;-69
2023/07/22 07:47:21;;;;;;;2.40;1.10;;;22.80;55.30;;;;;;2292594;55;21079;-65
2023/07/22 07:49:49;;;;;;;2.00;1.00;;;23.00;55.30;;;;;;2292758;55;21338;-65
2023/07/22 07:52:18;;;;;;;3.50;1.40;;;23.10;55.20;;;;;;2292581;55;21051;-65
2023/07/22 07:54:45;;;;;;;2.53;1.30;;;23.20;55.00;;;;;;2528477;54;21008;-68
2023/07/22 07:57:14;;;;;;;2.92;1.40;;;23.30;54.90;;;;;;2292381;55;20892;-65
2023/07/22 07:59:44;;;;;;;3.17;1.27;;;23.40;54.90;;;;;;2528532;54;20972;-65
2023/07/22 08:02:10;;;;;;;2.67;1.20;;;23.50;54.90;;;;;;2293246;55;20937;-65
2023/07/22 08:04:37;;;;;;;3.70;1.60;;;23.60;54.80;;;;;;2292855;55;20976;-64
2023/07/22 08:07:05;;;;;;;3.10;1.30;;;23.70;54.80;;;;;;2292543;55;20952;-65
2023/07/22 08:09:31;;;;;;;3.05;1.40;;;23.80;54.70;;;;;;2293105;56;20904;-64
2023/07/22 08:11:58;;;;;;;2.87;1.23;;;23.90;54.60;;;;;;2286831;55;26918;-63
2023/07/22 08:14:24;;;;;;;2.72;1.10;;;24.00;54.50;;;;;;2511901;54;21789;-67
2023/07/22 08:16:51;;;;;;;3.42;1.15;;;24.10;54.30;;;;;;2273940;55;20953;-67
2023/07/22 08:19:17;;;;;;;2.65;1.20;;;24.30;54.30;;;;;;2272996;55;20954;-65
2023/07/22 08:21:44;;;;;;;2.37;1.12;;;24.30;54.10;;;;;;2527992;54;21350;-63
2023/07/22 08:24:10;;;;;;;2.67;1.27;;;24.40;54.00;;;;;;2527694;54;20940;-66
2023/07/22 08:26:43;;;;;;;2.67;1.10;;;24.50;53.80;;;;;;2292732;55;20956;-67
2023/07/22 08:29:10;;;;;;;2.55;1.27;;;24.60;53.70;;;;;;2515825;54;20933;-65
2023/07/22 08:31:38;;;;;;;3.03;1.08;;;24.70;53.60;;;;;;2514778;54;20904;-65
2023/07/22 08:34:04;;;;;;;2.60;1.10;;;24.80;53.40;;;;;;2527157;54;20936;-66
2023/07/22 08:36:31;;;;;;;2.45;1.08;;;24.80;53.30;;;;;;2292906;56;20982;-68
2023/07/22 08:38:58;;;;;;;2.25;1.00;;;24.90;53.20;;;;;;2291884;55;20973;-65
2023/07/22 08:41:25;;;;;;;2.62;1.17;;;25.00;53.10;;;;;;2512450;54;21017;-65
2023/07/22 08:43:51;;;;;;;2.87;1.30;;;25.00;52.80;;;;;;2517261;54;21691;-70
2023/07/22 08:46:23;;;;;;;2.85;1.20;;;25.10;52.60;;;;;;2526229;54;20915;-66
2023/07/22 08:48:51;;;;;;;3.00;1.40;;;25.20;52.30;;;;;;2528127;54;20950;-66
2023/07/22 08:51:18;;;;;;;2.45;1.10;;;25.20;52.20;;;;;;2292363;55;20980;-66
2023/07/22 08:53:45;;;;;;;2.95;1.17;;;25.30;52.10;;;;;;2527766;54;21008;-69
2023/07/22 08:56:16;;;;;;;3.53;1.40;;;25.30;52.10;;;;;;2295099;55;21018;-65
2023/07/22 08:58:42;;;;;;;2.80;1.20;;;25.30;52.00;;;;;;2270853;55;20960;-66
2023/07/22 09:01:09;;;;;;;2.50;1.12;;;25.40;52.00;;;;;;2292679;55;21047;-65
2023/07/22 09:03:38;;;;;;;2.72;1.20;;;25.50;52.00;;;;;;2292836;55;20940;-66
2023/07/22 09:06:05;;;;;;;2.60;1.05;;;25.50;51.80;;;;;;2527853;54;21713;-66
2023/07/22 09:08:31;;;;;;;2.67;1.20;;;25.50;51.60;;;;;;2293324;55;21011;-66
2023/07/22 09:10:58;;;;;;;3.30;1.20;;;25.60;51.60;;;;;;2527885;54;21696;-66
2023/07/22 09:13:24;;;;;;;2.33;1.10;;;25.60;51.50;;;;;;2292398;55;20972;-66
2023/07/22 09:15:53;;;;;;;2.70;1.20;;;25.60;51.30;;;;;;2292612;55;20992;-66
2023/07/22 09:18:26;;;;;;;2.90;1.02;;;25.60;51.30;;;;;;2295086;55;20932;-66
2023/07/22 09:20:52;;;;;;;2.40;1.20;;;25.70;51.30;;;;;;2274365;55;21762;-66
2023/07/22 09:23:31;;;;;;;3.00;1.10;;;25.70;51.40;;;;;;2269758;55;21543;-66
2023/07/22 09:26:15;;;;;;;3.30;1.40;;;25.70;51.40;;;;;;2278717;55;21378;-66
2023/07/22 09:28:57;;;;;;;3.12;1.25;;;25.80;51.30;;;;;;2292147;55;21394;-66
2023/07/22 09:31:27;;;;;;;2.70;1.20;;;25.90;51.00;;;;;;2291915;55;20940;-66
2023/07/22 09:33:55;;;;;;;2.35;1.00;;;25.90;50.90;;;;;;2292703;55;20924;-68
2023/07/22 09:36:21;;;;;;;2.58;1.10;;;25.90;50.70;;;;;;2292732;55;20956;-66
2023/07/22 09:39:03;;;;;;;2.10;1.00;;;26.00;50.40;;;;;;2293694;55;20964;-65
2023/07/22 09:41:32;;;;;;;2.85;0.98;;;26.00;49.90;;;;;;2292920;56;20940;-66
2023/07/22 09:44:02;;;;;;;2.30;1.00;;;26.00;50.00;;;;;;2527700;54;20968;-68
2023/07/22 09:46:35;;;;;;;2.42;0.90;;;26.10;49.60;;;;;;2292600;55;20979;-66
2023/07/22 09:49:07;;;;;;;3.30;1.45;;;26.10;49.50;;;;;;2292483;55;21063;-69
2023/07/22 09:51:38;;;;;;;2.30;0.88;;;26.10;49.40;;;;;;2528894;54;20955;-67
2023/07/22 09:54:08;;;;;;;2.65;0.90;;;26.20;49.70;;;;;;2527996;54;20984;-65
2023/07/22 09:56:45;;;;;;;1.90;0.93;;;26.20;49.70;;;;;;2292669;55;20920;-66
2023/07/22 09:59:12;;;;;;;2.05;0.80;;;26.20;48.90;;;;;;2274813;55;20970;-67
2023/07/22 10:01:39;;;;;;;1.70;0.60;;;26.20;48.80;;;;;;2290145;55;20972;-67
2023/07/22 10:04:05;;;;;;;3.97;0.93;;;26.30;48.50;;;;;;2527678;54;21007;-69
2023/07/22 10:06:32;;;;;;;1.45;0.60;;;26.30;48.50;;;;;;2527443;54;20959;-66
2023/07/22 10:09:07;;;;;;;1.62;0.60;;;26.30;48.50;;;;;;2292779;55;21378;-67
2023/07/22 10:11:34;;;;;;;1.92;0.82;;;26.30;48.10;;;;;;2528338;54;20945;-66
2023/07/22 10:14:04;;;;;;;2.42;0.90;;;26.40;48.30;;;;;;2527275;54;21586;-66
2023/07/22 10:16:30;;;;;;;1.27;0.62;;;26.40;48.10;;;;;;2292577;55;20947;-66
2023/07/22 10:18:59;;;;;;;1.77;0.68;;;26.50;48.20;;;;;;2292466;55;20924;-65
2023/07/22 10:21:28;;;;;;;2.30;0.70;;;26.50;47.90;;;;;;2514292;54;21018;-69
2023/07/22 10:23:56;;;;;;;1.70;0.70;;;26.60;47.60;;;;;;2516176;54;20968;-69
2023/07/22 10:26:22;;;;;;;2.30;0.80;;;26.60;47.30;;;;;;2292393;55;20979;-66
2023/07/22 10:28:55;;;;;;;2.12;0.90;;;26.70;47.10;;;;;;2292426;56;20957;-67
2023/07/22 10:31:22;;;;;;;2.28;0.80;;;26.70;46.90;;;;;;2292337;55;20939;-66
2023/07/22 10:33:49;;;;;;;1.87;0.85;;;26.80;47.00;;;;;;2293375;55;20959;-66
2023/07/22 10:36:16;;;;;;;1.80;0.80;;;27.00;46.90;;;;;;2527804;54;20897;-67
2023/07/22 10:38:43;;;;;;;1.55;0.70;;;26.90;46.90;;;;;;2293255;55;20940;-66
2023/07/22 10:41:13;;;;;;;1.95;0.80;;;27.00;46.80;;;;;;2527652;54;20956;-67
2023/07/22 10:43:41;;;;;;;2.47;0.73;;;27.10;46.40;;;;;;2292940;55;20972;-68
2023/07/22 10:46:10;;;;;;;2.20;0.80;;;27.20;46.60;;;;;;2528273;54;21464;-67
2023/07/22 10:48:39;;;;;;;1.90;0.80;;;27.30;46.30;;;;;;2293284;56;20971;-71
2023/07/22 10:51:15;;;;;;;1.65;0.75;;;27.30;46.20;;;;;;2528352;54;21958;-67
2023/07/22 10:53:43;;;;;;;1.80;0.85;;;27.40;45.60;;;;;;2503207;54;21053;-71
2023/07/22 10:56:20;;;;;;;1.65;0.70;;;27.50;45.90;;;;;;2526563;54;20984;-66
2023/07/22 10:58:56;;;;;;;3.03;1.00;;;27.60;45.80;;;;;;2292361;55;21006;-67
2023/07/22 11:01:36;;;;;;;3.00;0.95;;;27.70;45.60;;;;;;2509078;54;20908;-71
2023/07/22 11:07:43;;;;;;;2.78;1.10;;;27.70;45.30;;;;;;2528121;54;21010;-66
2023/07/22 11:10:18;;;;;;;1.45;0.65;;;28.00;45.50;;;;;;2497602;54;21873;-66
2023/07/22 11:12:45;;;;;;;1.52;0.70;;;28.10;45.50;;;;;;2526343;54;20948;-67
2023/07/22 11:15:14;;;;;;;2.12;0.80;;;28.10;45.00;;;;;;2528191;54;20980;-67
2023/07/22 11:17:40;;;;;;;1.80;0.82;;;28.20;44.70;;;;;;2293015;55;20927;-66
2023/07/22 11:20:08;;;;;;;2.10;0.95;;;28.30;44.60;;;;;;2528148;54;20916;-68
2023/07/22 11:22:35;;;;;;;1.70;0.80;;;28.30;44.50;;;;;;2528504;54;20965;-68
2023/07/22 11:25:03;;;;;;;1.85;0.82;;;28.40;44.60;;;;;;2293138;55;21394;-70
2023/07/22 11:27:30;;;;;;;2.42;1.00;;;28.40;44.40;;;;;;2528470;54;21437;-67
2023/07/22 11:30:03;;;;;;;2.25;1.00;;;28.50;44.30;;;;;;2527683;54;20944;-67
2023/07/22 11:32:29;;;;;;;4.25;1.10;;;28.60;43.60;;;;;;2527996;54;21538;-67
2023/07/22 11:34:56;;;;;;;2.37;1.00;;;28.60;43.60;;;;;;2528300;54;21674;-69
2023/07/22 11:37:23;;;;;;;2.80;0.90;;;28.70;43.40;;;;;;2292736;55;20983;-68
2023/07/22 11:39:50;;;;;;;2.00;0.73;;;28.70;43.40;;;;;;2528895;54;20924;-67
2023/07/22 11:42:17;;;;;;;2.40;1.00;;;28.80;43.30;;;;;;2528154;54;20952;-70
2023/07/22 11:44:46;;;;;;;2.35;0.90;;;28.80;43.10;;;;;;2528357;54;20928;-69
2023/07/22 11:47:17;;;;;;;2.40;1.12;;;28.90;42.90;;;;;;2528780;54;20908;-70
2023/07/22 11:49:48;;;;;;;2.50;0.80;;;28.90;42.40;;;;;;2528233;54;20996;-70
2023/07/22 11:52:17;;;;;;;1.85;0.80;;;29.00;42.40;;;;;;2517219;54;21002;-68
2023/07/22 11:54:45;;;;;;;1.87;0.80;;;29.10;42.40;;;;;;2513240;54;20884;-67
2023/07/22 11:57:20;;;;;;;2.08;0.80;;;29.10;42.40;;;;;;2528394;54;20907;-67
2023/07/22 11:59:51;;;;;;;2.08;0.82;;;29.10;41.80;;;;;;2526737;54;21648;-67
2023/07/22 12:02:18;;;;;;;2.10;0.88;;;29.20;42.10;;;;;;2292618;55;20908;-70
2023/07/22 12:05:02;;;;;;;1.67;0.65;;;29.20;42.20;;;;;;2528424;54;20944;-70
2023/07/22 12:07:30;;;;;;;2.30;0.90;;;29.30;41.60;;;;;;2527708;54;20972;-70
2023/07/22 12:09:58;;;;;;;2.15;0.90;;;29.30;41.90;;;;;;2528406;54;21761;-71
2023/07/22 12:12:46;;;;;;;1.67;0.80;;;29.40;41.60;;;;;;2527172;54;20940;-72
2023/07/22 12:15:15;;;;;;;1.65;0.77;;;29.50;40.60;;;;;;2527437;54;21004;-70
2023/07/22 12:18:15;;;;;;;2.20;0.80;;;29.50;41.30;;;;;;2527786;54;21539;-68
2023/07/22 12:20:41;;;;;;;3.22;0.70;;;29.60;40.90;;;;;;2526605;54;21012;-67
2023/07/22 12:23:07;;;;;;;2.42;1.20;;;29.60;41.30;;;;;;2528354;54;20952;-68
2023/07/22 12:25:34;;;;;;;2.35;0.90;;;29.70;41.10;;;;;;2528092;54;20940;-69
2023/07/22 12:28:00;;;;;;;2.35;0.93;;;29.70;40.70;;;;;;2528660;54;20968;-68
2023/07/22 12:30:28;;;;;;;2.08;0.90;;;29.80;40.50;;;;;;2528100;54;20900;-68
2023/07/22 12:32:55;;;;;;;3.08;1.00;;;29.80;40.40;;;;;;2528135;54;20922;-71
2023/07/22 12:35:24;;;;;;;1.70;0.82;;;29.90;40.20;;;;;;2528299;54;20944;-67
2023/07/22 12:37:52;;;;;;;2.08;0.90;;;29.90;39.80;;;;;;2528543;54;20961;-70
2023/07/22 12:40:20;;;;;;;1.90;0.77;;;29.90;39.90;;;;;;2528077;54;21048;-68
2023/07/22 12:42:49;;;;;;;2.00;0.95;;;29.90;39.70;;;;;;2528342;54;20927;-68
2023/07/22 12:45:16;;;;;;;2.30;0.90;;;30.00;39.10;;;;;;2516535;54;20997;-68
2023/07/22 12:47:44;;;;;;;2.20;0.98;;;30.00;39.20;;;;;;2512074;54;20999;-68
2023/07/22 12:50:10;;;;;;;2.62;1.10;;;30.00;39.00;;;;;;2502051;54;21062;-69
2023/07/22 12:52:37;;;;;;;2.42;1.02;;;30.00;38.90;;;;;;2292648;55;21051;-69
2023/07/22 12:55:04;;;;;;;2.95;1.10;;;30.00;38.70;;;;;;2528109;54;20984;-71